Terminal Aerodrome Forecast
Issued by NWS Pocatello, ID

Home | Current Version | Previous Version | Text Only | Print | Product List | Glossary On
Versions: 1 2 3 4 5 6 7 8 9 10 11 12 13 14
000
FTUS45 KPIH 061120
TAFBYI
TAF
KBYI 061120Z 0612/0712 24006KT P6SM VCSH BKN100
     FM061900 28009KT P6SM VCTS BKN090CB OVC140
     FM070200 VRB06KT P6SM VCSH BKN110=

USA.gov is the U.S. government's official web portal to all federal, state and local government web resources and services.